createdAt,value
2023-12-05T00:00:06.799Z,40.17
2023-12-05T00:02:35.127Z,39.37
2023-12-05T00:05:06.281Z,40.83
2023-12-05T00:07:36.080Z,38.60
2023-12-05T00:10:04.454Z,39.20
2023-12-05T00:12:34.411Z,41.20
2023-12-05T00:15:02.832Z,39.03
2023-12-05T00:17:31.233Z,37.93
2023-12-05T00:19:59.701Z,40.03
2023-12-05T00:22:29.687Z,40.57
2023-12-05T00:24:58.084Z,39.53
2023-12-05T00:27:27.772Z,40.20
2023-12-05T00:29:58.667Z,38.97
2023-12-05T00:32:28.355Z,38.07
2023-12-05T00:34:56.819Z,39.00
2023-12-05T00:37:25.242Z,39.00
2023-12-05T00:39:53.663Z,39.50
2023-12-05T00:42:22.046Z,40.33
2023-12-05T00:44:50.222Z,40.90
2023-12-05T00:47:22.081Z,40.47
2023-12-05T00:49:52.256Z,40.67
2023-12-05T00:52:20.625Z,38.20
2023-12-05T00:54:49.145Z,39.00
2023-12-05T00:57:21.901Z,39.67
2023-12-05T00:59:51.059Z,40.10
2023-12-05T01:02:20.747Z,40.47
2023-12-05T01:04:49.611Z,40.73
2023-12-05T01:07:28.583Z,38.93
2023-12-05T01:09:57.342Z,38.40
2023-12-05T01:12:25.983Z,39.50
2023-12-05T01:14:54.372Z,38.07
2023-12-05T01:17:26.932Z,38.17
2023-12-05T01:19:55.153Z,40.57
2023-12-05T01:22:23.678Z,38.53
2023-12-05T01:24:56.261Z,38.33
2023-12-05T01:27:24.795Z,39.77
2023-12-05T01:29:56.097Z,38.70
2023-12-05T01:32:25.843Z,40.53
2023-12-05T01:34:54.167Z,39.20
2023-12-05T01:37:22.880Z,40.47
2023-12-05T01:39:51.461Z,40.43
2023-12-05T01:42:22.876Z,40.03
2023-12-05T01:44:51.347Z,38.83
2023-12-05T01:47:19.957Z,39.33
2023-12-05T01:49:54.324Z,40.20
2023-12-05T01:52:22.848Z,42.97
2023-12-05T01:54:55.407Z,40.33
2023-12-05T01:57:25.598Z,41.33
2023-12-05T01:59:54.928Z,43.57
2023-12-05T02:02:25.688Z,42.97
2023-12-05T02:04:57.277Z,44.90
2023-12-05T02:07:26.400Z,43.63
2023-12-05T02:09:54.753Z,43.30
2023-12-05T02:12:23.766Z,43.93
2023-12-05T02:14:52.109Z,41.87
2023-12-05T02:17:26.936Z,42.27
2023-12-05T02:20:09.860Z,42.10
2023-12-05T02:23:05.317Z,42.23
2023-12-05T02:25:48.491Z,43.03
2023-12-05T02:28:19.272Z,41.73
2023-12-05T02:30:49.612Z,40.90
2023-12-05T02:33:18.260Z,42.63
2023-12-05T02:35:47.151Z,40.37
2023-12-05T02:38:22.394Z,40.87
2023-12-05T02:40:59.553Z,41.47
2023-12-05T02:43:36.330Z,41.40
2023-12-05T02:46:10.016Z,39.37
2023-12-05T02:48:40.052Z,41.23
2023-12-05T02:51:08.759Z,42.07
2023-12-05T02:53:37.226Z,41.43
2023-12-05T02:56:06.669Z,42.73
2023-12-05T02:58:36.614Z,41.47
2023-12-05T03:01:05.387Z,41.90
2023-12-05T03:03:33.747Z,41.90
2023-12-05T03:06:04.889Z,40.53
2023-12-05T03:08:36.123Z,41.87
2023-12-05T03:11:10.015Z,40.93
2023-12-05T03:13:42.640Z,37.60
2023-12-05T03:16:18.927Z,40.83
2023-12-05T03:18:47.418Z,41.53
2023-12-05T03:21:20.707Z,40.67
2023-12-05T03:23:49.333Z,41.93
2023-12-05T03:26:20.838Z,38.73
2023-12-05T03:29:04.932Z,39.10
2023-12-05T03:31:44.855Z,39.40
2023-12-05T03:34:18.927Z,39.97
2023-12-05T03:36:51.193Z,39.03
2023-12-05T03:39:22.601Z,40.10
2023-12-05T03:41:51.074Z,37.90
2023-12-05T03:44:22.061Z,40.13
2023-12-05T03:46:50.834Z,39.07
2023-12-05T03:49:19.093Z,41.20
2023-12-05T03:51:49.662Z,38.00
2023-12-05T03:54:17.886Z,40.63
2023-12-05T03:56:48.787Z,38.70
2023-12-05T03:59:17.100Z,38.30
2023-12-05T04:01:47.191Z,40.77
2023-12-05T04:04:15.716Z,38.53
2023-12-05T04:06:46.936Z,41.23
2023-12-05T04:09:16.067Z,37.17
2023-12-05T04:11:44.410Z,35.70
2023-12-05T04:14:12.910Z,35.07
2023-12-05T04:16:43.441Z,36.00
2023-12-05T04:19:14.519Z,36.80
2023-12-05T04:21:42.992Z,36.77
2023-12-05T04:24:11.451Z,36.43
2023-12-05T04:26:49.012Z,37.83
2023-12-05T04:29:19.526Z,37.00
2023-12-05T04:31:47.884Z,37.17
2023-12-05T04:34:20.935Z,36.17
2023-12-05T04:36:49.493Z,36.90
2023-12-05T04:39:19.959Z,35.27
2023-12-05T04:41:54.432Z,35.50
2023-12-05T04:44:23.825Z,36.37
2023-12-05T04:47:01.016Z,37.20
2023-12-05T04:49:32.719Z,36.07
2023-12-05T04:52:17.399Z,36.50
2023-12-05T04:54:53.424Z,36.37
2023-12-05T04:57:28.472Z,36.47
2023-12-05T05:00:09.027Z,35.57
2023-12-05T05:02:41.144Z,35.17
2023-12-05T05:05:21.923Z,34.87
2023-12-05T05:07:52.477Z,38.77
2023-12-05T05:10:23.449Z,36.47
2023-12-05T05:13:03.216Z,35.63
2023-12-05T05:15:34.409Z,35.70
2023-12-05T05:18:09.913Z,33.67
2023-12-05T05:20:42.647Z,36.50
2023-12-05T05:23:18.238Z,36.00
2023-12-05T05:25:48.085Z,35.07
2023-12-05T05:28:28.039Z,36.63
2023-12-05T05:30:59.598Z,36.03
2023-12-05T05:33:32.754Z,37.03
2023-12-05T05:36:28.330Z,37.40
2023-12-05T05:39:08.862Z,36.93
2023-12-05T05:41:37.859Z,36.17
2023-12-05T05:44:06.486Z,36.73
2023-12-05T05:46:39.960Z,36.50
2023-12-05T05:49:10.480Z,36.10
2023-12-05T05:51:40.804Z,36.93
2023-12-05T05:54:10.825Z,37.97
2023-12-05T05:56:42.406Z,36.50
2023-12-05T05:59:10.681Z,37.17
2023-12-05T06:01:40.979Z,36.30
2023-12-05T06:04:14.244Z,35.17
2023-12-05T06:06:48.322Z,34.07
2023-12-05T06:09:16.679Z,35.80
2023-12-05T06:11:45.133Z,36.60
2023-12-05T06:14:13.603Z,36.23
2023-12-05T06:16:42.163Z,37.47
2023-12-05T06:19:10.395Z,36.30
2023-12-05T06:21:41.943Z,37.03
2023-12-05T06:24:20.896Z,38.53
2023-12-05T06:26:51.021Z,36.73
2023-12-05T06:29:19.362Z,38.07
2023-12-05T06:31:51.084Z,35.20
2023-12-05T06:34:28.439Z,38.60
2023-12-05T06:36:56.960Z,37.47
2023-12-05T06:39:47.142Z,36.23
2023-12-05T06:42:20.315Z,35.53
2023-12-05T06:45:02.023Z,37.77
2023-12-05T06:47:40.334Z,37.13
2023-12-05T06:50:14.014Z,37.93
2023-12-05T06:52:42.876Z,35.97
2023-12-05T06:55:46.673Z,35.20
2023-12-05T06:58:20.728Z,36.00
2023-12-05T07:01:00.398Z,35.10
2023-12-05T07:03:44.112Z,36.03
2023-12-05T07:06:19.288Z,34.90
2023-12-05T07:08:47.701Z,37.17
2023-12-05T07:11:23.337Z,40.87
2023-12-05T07:13:51.790Z,39.60
2023-12-05T07:16:25.145Z,41.27
2023-12-05T07:19:00.665Z,38.43
2023-12-05T07:21:32.197Z,40.03
2023-12-05T07:24:06.112Z,40.00
2023-12-05T07:26:36.824Z,43.57
2023-12-05T07:29:13.123Z,42.50
2023-12-05T07:31:46.442Z,42.63
2023-12-05T07:34:14.822Z,43.73
2023-12-05T07:36:44.008Z,41.50
2023-12-05T07:39:16.777Z,43.57
2023-12-05T07:41:47.092Z,44.07
2023-12-05T07:44:15.812Z,42.50
2023-12-05T07:46:44.561Z,42.03
2023-12-05T07:49:16.770Z,44.37
2023-12-05T07:51:45.472Z,41.77
2023-12-05T07:54:17.171Z,41.33
2023-12-05T07:56:52.677Z,42.93
2023-12-05T07:59:26.056Z,41.67
2023-12-05T08:01:55.743Z,42.23
2023-12-05T08:04:30.599Z,42.20
2023-12-05T08:07:00.656Z,42.40
2023-12-05T08:09:30.266Z,44.37
2023-12-05T08:12:02.895Z,42.63
2023-12-05T08:14:31.444Z,43.27
2023-12-05T08:16:59.848Z,44.07
2023-12-05T08:19:31.859Z,44.00
2023-12-05T08:22:00.572Z,41.70
2023-12-05T08:24:32.166Z,43.63
2023-12-05T08:27:03.177Z,41.03
2023-12-05T08:29:31.698Z,42.43
2023-12-05T08:32:00.514Z,42.87
2023-12-05T08:34:29.033Z,42.03
2023-12-05T08:36:57.358Z,44.40
2023-12-05T08:39:28.931Z,42.37
2023-12-05T08:42:00.839Z,41.73
2023-12-05T08:44:33.193Z,40.80
2023-12-05T08:47:03.525Z,43.93
2023-12-05T08:49:34.673Z,44.17
2023-12-05T08:52:05.926Z,41.80
2023-12-05T08:54:34.367Z,43.60
2023-12-05T08:57:02.908Z,42.67
2023-12-05T08:59:32.959Z,43.40
2023-12-05T09:02:01.633Z,41.27
2023-12-05T09:04:29.900Z,43.00
2023-12-05T09:06:58.336Z,42.93
2023-12-05T09:09:26.650Z,41.87
2023-12-05T09:12:00.993Z,42.80
2023-12-05T09:14:30.445Z,41.83
2023-12-05T09:17:00.835Z,42.03
2023-12-05T09:19:30.932Z,42.80
2023-12-05T09:21:59.334Z,42.77
2023-12-05T09:24:27.623Z,44.37
2023-12-05T09:26:55.934Z,42.53
2023-12-05T09:29:24.480Z,47.80
2023-12-05T09:31:52.908Z,49.07
2023-12-05T09:34:24.533Z,43.03
2023-12-05T09:36:53.024Z,42.10
2023-12-05T09:39:21.311Z,41.27
2023-12-05T09:41:54.571Z,42.33
2023-12-05T09:44:23.780Z,40.20
2023-12-05T09:46:54.238Z,44.17
2023-12-05T09:49:28.903Z,40.80
2023-12-05T09:51:58.043Z,44.27
2023-12-05T09:54:27.431Z,41.60
2023-12-05T09:56:56.818Z,42.80
2023-12-05T09:59:25.510Z,40.77
2023-12-05T10:02:01.148Z,42.17
2023-12-05T10:04:35.009Z,47.50
2023-12-05T10:07:04.103Z,42.13
2023-12-05T10:09:35.826Z,40.80
2023-12-05T10:12:05.416Z,43.23
2023-12-05T10:14:33.837Z,42.73
2023-12-05T10:17:04.802Z,41.70
2023-12-05T10:19:36.408Z,43.90
2023-12-05T10:22:05.787Z,42.23
2023-12-05T10:24:51.320Z,43.70
2023-12-05T10:27:19.755Z,43.93
2023-12-05T10:29:48.050Z,45.70
2023-12-05T10:32:16.354Z,43.47
2023-12-05T10:34:50.538Z,41.87
2023-12-05T10:37:25.447Z,42.70
2023-12-05T10:39:55.096Z,43.47
2023-12-05T10:42:26.833Z,46.23
2023-12-05T10:44:55.177Z,42.90
2023-12-05T10:47:25.220Z,44.13
2023-12-05T10:49:55.069Z,43.50
2023-12-05T10:52:26.770Z,44.77
2023-12-05T10:54:57.985Z,42.03
2023-12-05T10:57:31.905Z,44.97
2023-12-05T11:00:00.906Z,44.13
2023-12-05T11:02:30.414Z,42.33
2023-12-05T11:05:04.386Z,44.10
2023-12-05T11:07:32.642Z,45.30
2023-12-05T11:10:05.800Z,44.63
2023-12-05T11:12:35.012Z,44.20
2023-12-05T11:15:04.404Z,41.93
2023-12-05T11:17:45.587Z,43.67
2023-12-05T11:20:32.030Z,44.70
2023-12-05T11:23:19.195Z,41.10
2023-12-05T11:25:59.638Z,44.27
2023-12-05T11:28:46.746Z,42.23
2023-12-05T11:31:27.920Z,46.50
2023-12-05T11:34:32.633Z,43.50
2023-12-05T11:37:14.601Z,45.67
2023-12-05T11:39:42.947Z,42.77
2023-12-05T11:42:16.143Z,46.10
2023-12-05T11:44:44.994Z,44.23
2023-12-05T11:47:15.904Z,41.80
2023-12-05T11:49:52.066Z,44.10
2023-12-05T11:52:22.935Z,43.77
2023-12-05T11:54:55.172Z,43.93
2023-12-05T11:57:25.353Z,47.90
2023-12-05T11:59:55.444Z,44.10
2023-12-05T12:02:42.196Z,42.83
2023-12-05T12:05:12.374Z,43.53
2023-12-05T12:07:53.794Z,41.33
2023-12-05T12:10:22.633Z,43.23
2023-12-05T12:12:55.358Z,42.27
2023-12-05T12:15:24.957Z,43.57
2023-12-05T12:17:53.680Z,43.07
2023-12-05T12:20:22.259Z,44.27
2023-12-05T12:22:53.398Z,44.43
2023-12-05T12:25:23.623Z,45.90
2023-12-05T12:27:51.957Z,43.43
2023-12-05T12:30:20.511Z,43.43
2023-12-05T12:32:57.520Z,44.13
2023-12-05T12:35:26.656Z,44.03
2023-12-05T12:37:58.644Z,44.73
2023-12-05T12:40:27.251Z,45.87
2023-12-05T12:42:57.355Z,43.00
2023-12-05T12:45:27.898Z,42.50
2023-12-05T12:47:57.228Z,44.20
2023-12-05T12:50:25.863Z,43.10
2023-12-05T12:52:55.820Z,44.57
2023-12-05T12:55:25.575Z,43.83
2023-12-05T12:57:55.204Z,39.87
2023-12-05T13:00:32.375Z,42.27
2023-12-05T13:03:07.665Z,43.50
2023-12-05T13:05:37.506Z,42.63
2023-12-05T13:08:06.618Z,43.57
2023-12-05T13:10:38.190Z,42.47
2023-12-05T13:13:06.859Z,43.93
2023-12-05T13:15:35.953Z,42.87
2023-12-05T13:18:06.048Z,41.27
2023-12-05T13:20:35.028Z,44.27
2023-12-05T13:23:03.270Z,43.07
2023-12-05T13:25:39.822Z,44.07
2023-12-05T13:28:16.994Z,45.53
2023-12-05T13:30:45.236Z,44.87
2023-12-05T13:33:16.200Z,44.27
2023-12-05T13:35:44.700Z,44.77
2023-12-05T13:38:13.241Z,44.50
2023-12-05T13:40:41.373Z,44.47
2023-12-05T13:43:09.525Z,43.20
2023-12-05T13:45:39.417Z,44.00
2023-12-05T13:48:08.575Z,41.47
2023-12-05T13:50:36.914Z,45.83
2023-12-05T13:53:05.320Z,43.03
2023-12-05T13:55:33.649Z,43.40
2023-12-05T13:58:05.115Z,42.00
2023-12-05T14:00:34.879Z,43.27
2023-12-05T14:03:06.552Z,41.17
2023-12-05T14:05:34.968Z,40.50
2023-12-05T14:08:03.226Z,42.30
2023-12-05T14:10:31.354Z,39.50
2023-12-05T14:12:59.714Z,43.53
2023-12-05T14:15:27.913Z,40.97
2023-12-05T14:17:56.192Z,42.10
2023-12-05T14:20:25.789Z,42.70
2023-12-05T14:22:54.231Z,41.43
2023-12-05T14:25:22.410Z,42.20
2023-12-05T14:27:50.612Z,39.50
2023-12-05T14:30:18.711Z,40.70
2023-12-05T14:32:46.947Z,41.73
2023-12-05T14:35:15.494Z,40.33
2023-12-05T14:37:45.981Z,40.77
2023-12-05T14:40:14.233Z,41.37
2023-12-05T14:42:42.899Z,39.73
2023-12-05T14:45:11.470Z,41.03
2023-12-05T14:47:39.718Z,39.67
2023-12-05T14:50:08.452Z,39.60
2023-12-05T14:52:36.683Z,41.00
2023-12-05T14:55:06.934Z,41.40
2023-12-05T14:57:35.280Z,39.47
2023-12-05T15:00:03.902Z,40.70
2023-12-05T15:02:32.232Z,40.27
2023-12-05T15:05:02.449Z,40.00
2023-12-05T15:07:30.534Z,38.53
2023-12-05T15:09:58.687Z,38.87
2023-12-05T15:12:31.622Z,37.60
2023-12-05T15:15:00.089Z,38.47
2023-12-05T15:17:28.244Z,39.07
2023-12-05T15:20:18.682Z,38.90
2023-12-05T15:22:46.476Z,41.07
2023-12-05T15:25:14.758Z,39.93
2023-12-05T15:27:46.298Z,38.30
2023-12-05T15:30:14.976Z,39.47
2023-12-05T15:32:52.874Z,40.53
2023-12-05T15:35:22.938Z,39.03
2023-12-05T15:37:51.378Z,40.17
2023-12-05T15:40:19.610Z,38.97
2023-12-05T15:42:50.124Z,39.40
2023-12-05T15:45:19.279Z,38.50
2023-12-05T15:47:47.587Z,36.70
2023-12-05T15:50:18.503Z,38.53
2023-12-05T15:52:47.457Z,37.33
2023-12-05T15:55:16.058Z,36.40
2023-12-05T15:57:45.243Z,37.77
2023-12-05T16:00:15.834Z,37.60
2023-12-05T16:02:45.584Z,37.63
2023-12-05T16:05:14.338Z,37.33
2023-12-05T16:07:42.548Z,38.23
2023-12-05T16:10:11.893Z,38.83
2023-12-05T16:12:40.149Z,38.70
2023-12-05T16:15:09.671Z,36.37
2023-12-05T16:17:39.284Z,37.70
2023-12-05T16:20:08.238Z,35.90
2023-12-05T16:22:36.374Z,37.60
2023-12-05T16:25:07.127Z,37.40
2023-12-05T16:27:39.507Z,38.03
2023-12-05T16:30:09.021Z,36.27
2023-12-05T16:32:40.659Z,36.10
2023-12-05T16:35:11.871Z,36.03
2023-12-05T16:37:41.749Z,43.40
2023-12-05T16:40:11.167Z,37.60
2023-12-05T16:42:39.637Z,38.70
2023-12-05T16:45:10.027Z,38.77
2023-12-05T16:47:44.945Z,38.10
2023-12-05T16:50:13.940Z,38.50
2023-12-05T16:52:43.136Z,39.03
2023-12-05T16:55:11.505Z,39.40
2023-12-05T16:57:39.776Z,38.90
2023-12-05T17:00:11.226Z,39.53
2023-12-05T17:02:39.398Z,40.07
2023-12-05T17:05:10.324Z,38.43
2023-12-05T17:07:38.628Z,38.50
2023-12-05T17:10:08.260Z,39.20
2023-12-05T17:12:36.595Z,39.57
2023-12-05T17:15:05.489Z,40.20
2023-12-05T17:17:34.653Z,39.13
2023-12-05T17:20:04.350Z,39.00
2023-12-05T17:22:33.941Z,38.73
2023-12-05T17:25:05.529Z,40.33
2023-12-05T17:27:33.796Z,40.27
2023-12-05T17:30:02.216Z,39.57
2023-12-05T17:32:30.380Z,38.77
2023-12-05T17:34:59.420Z,39.73
2023-12-05T17:37:31.943Z,39.60
2023-12-05T17:40:05.320Z,39.03
2023-12-05T17:42:33.961Z,39.37
2023-12-05T17:45:05.884Z,39.53
2023-12-05T17:47:34.121Z,38.47
2023-12-05T17:50:02.505Z,38.60
2023-12-05T17:52:30.957Z,38.07
2023-12-05T17:54:59.267Z,37.37
2023-12-05T17:57:28.869Z,37.23
2023-12-05T17:59:57.015Z,36.70
2023-12-05T18:02:25.364Z,36.07
2023-12-05T18:04:54.042Z,38.00
2023-12-05T18:07:52.293Z,36.90
2023-12-05T18:11:00.211Z,36.03
2023-12-05T18:13:51.328Z,37.40
2023-12-05T18:16:19.425Z,36.40
2023-12-05T18:18:51.487Z,34.87
2023-12-05T18:21:20.280Z,35.73
2023-12-05T18:23:48.530Z,35.43
2023-12-05T18:26:16.948Z,36.20
2023-12-05T18:28:46.512Z,34.20
2023-12-05T18:31:14.692Z,34.47
2023-12-05T18:33:43.077Z,35.47
2023-12-05T18:36:12.071Z,34.53
2023-12-05T18:38:41.197Z,34.00
2023-12-05T18:41:09.321Z,34.50
2023-12-05T18:43:38.965Z,34.60
2023-12-05T18:46:09.678Z,34.50
2023-12-05T18:48:38.109Z,36.37
2023-12-05T18:51:06.642Z,34.93
2023-12-05T18:53:34.757Z,37.83
2023-12-05T18:56:04.316Z,38.00
2023-12-05T18:58:32.786Z,36.77
2023-12-05T19:01:03.981Z,36.33
2023-12-05T19:03:33.566Z,35.80
2023-12-05T19:06:02.059Z,37.43
2023-12-05T19:08:30.365Z,37.13
2023-12-05T19:11:05.697Z,37.13
2023-12-05T19:13:36.400Z,38.47
2023-12-05T19:16:05.857Z,40.43
2023-12-05T19:18:35.618Z,40.63
2023-12-05T19:21:08.778Z,39.30
2023-12-05T19:23:42.044Z,39.37
2023-12-05T19:26:12.714Z,40.60
2023-12-05T19:28:46.559Z,39.87
2023-12-05T19:31:20.127Z,39.10
2023-12-05T19:33:50.435Z,39.60
2023-12-05T19:36:18.767Z,39.20
2023-12-05T19:38:48.217Z,39.90
2023-12-05T19:41:23.646Z,38.53
2023-12-05T19:43:52.732Z,40.00
2023-12-05T19:46:23.839Z,39.63
2023-12-05T19:48:54.494Z,40.17
2023-12-05T19:51:23.813Z,39.87
2023-12-05T19:53:51.936Z,40.83
2023-12-05T19:56:20.057Z,40.03
2023-12-05T19:58:48.391Z,41.13
2023-12-05T20:01:16.452Z,39.60
2023-12-05T20:03:53.601Z,40.97
2023-12-05T20:06:29.378Z,39.43
2023-12-05T20:09:01.043Z,40.70
2023-12-05T20:11:32.403Z,42.93
2023-12-05T20:14:00.798Z,38.57
2023-12-05T20:16:29.048Z,39.43
2023-12-05T20:19:00.256Z,39.87
2023-12-05T20:21:28.662Z,39.27
2023-12-05T20:23:58.252Z,40.20
2023-12-05T20:26:26.489Z,40.60
2023-12-05T20:28:55.003Z,40.27
2023-12-05T20:31:23.175Z,40.57
2023-12-05T20:33:51.506Z,39.93
2023-12-05T20:36:21.070Z,39.47
2023-12-05T20:38:51.149Z,40.67
2023-12-05T20:41:19.383Z,39.87
2023-12-05T20:43:51.134Z,40.63
2023-12-05T20:46:19.819Z,41.00
2023-12-05T20:48:54.264Z,39.90
2023-12-05T20:51:26.957Z,40.63
2023-12-05T20:53:55.301Z,40.13
2023-12-05T20:56:23.608Z,39.60
2023-12-05T20:58:51.685Z,40.63
2023-12-05T21:01:20.067Z,40.00
2023-12-05T21:03:48.568Z,39.03
2023-12-05T21:06:16.706Z,42.67
2023-12-05T21:09:10.402Z,41.37
2023-12-05T21:11:34.379Z,38.33
2023-12-05T21:14:02.865Z,40.40
2023-12-05T21:16:31.054Z,41.37
2023-12-05T21:18:59.844Z,40.80
2023-12-05T21:21:27.880Z,41.00
2023-12-05T21:23:57.763Z,39.83
2023-12-05T21:26:25.783Z,39.07
2023-12-05T21:28:53.853Z,40.67
2023-12-05T21:31:22.037Z,40.53
2023-12-05T21:33:50.169Z,39.80
2023-12-05T21:36:25.159Z,40.37
2023-12-05T21:38:58.375Z,41.90
2023-12-05T21:41:29.181Z,42.47
2023-12-05T21:43:58.227Z,42.53
2023-12-05T21:46:29.275Z,41.70
2023-12-05T21:48:58.044Z,43.30
2023-12-05T21:51:26.922Z,42.23
2023-12-05T21:53:55.016Z,41.73
2023-12-05T21:56:23.287Z,40.50
2023-12-05T21:58:52.783Z,39.27
2023-12-05T22:01:21.056Z,40.63
2023-12-05T22:03:49.541Z,38.37
2023-12-05T22:06:17.756Z,41.93
2023-12-05T22:08:45.814Z,39.53
2023-12-05T22:11:14.100Z,38.97
2023-12-05T22:13:44.546Z,39.43
2023-12-05T22:16:14.279Z,39.23
2023-12-05T22:18:44.065Z,40.73
2023-12-05T22:21:12.237Z,40.07
2023-12-05T22:23:41.612Z,40.80
2023-12-05T22:26:10.323Z,41.40
2023-12-05T22:28:40.471Z,39.63
2023-12-05T22:31:11.920Z,40.80
2023-12-05T22:33:42.293Z,40.83
2023-12-05T22:36:10.920Z,40.90
2023-12-05T22:38:40.064Z,40.63
2023-12-05T22:41:11.223Z,41.47
2023-12-05T22:43:39.477Z,40.53
2023-12-05T22:46:11.426Z,40.10
2023-12-05T22:48:41.604Z,41.83
2023-12-05T22:51:11.292Z,40.27
2023-12-05T22:56:11.895Z,41.20
2023-12-05T22:58:40.110Z,41.17
2023-12-05T23:01:08.682Z,41.07
2023-12-05T23:03:36.944Z,41.10
2023-12-05T23:06:07.219Z,42.10
2023-12-05T23:08:35.523Z,40.20
2023-12-05T23:11:03.973Z,40.40
2023-12-05T23:13:32.129Z,40.87
2023-12-05T23:16:00.875Z,40.17
2023-12-05T23:18:29.629Z,40.90
2023-12-05T23:20:58.112Z,39.70
2023-12-05T23:23:27.727Z,39.80
2023-12-05T23:25:55.849Z,40.03
2023-12-05T23:28:25.985Z,39.17
2023-12-05T23:30:54.655Z,39.63
2023-12-05T23:33:23.042Z,39.77
2023-12-05T23:35:51.131Z,39.43
2023-12-05T23:38:19.260Z,39.80
2023-12-05T23:40:49.182Z,39.27
2023-12-05T23:43:17.317Z,39.87
2023-12-05T23:45:45.693Z,39.47
2023-12-05T23:48:13.893Z,40.37
2023-12-05T23:50:42.146Z,39.60
2023-12-05T23:53:10.782Z,42.50
2023-12-05T23:55:39.217Z,38.63
2023-12-05T23:58:08.741Z,40.23
